createdAt,value
2019-06-20T00:00:25.095Z,17.74
2019-06-20T00:02:53.009Z,17.74
2019-06-20T00:05:20.715Z,17.73
2019-06-20T00:07:48.610Z,17.70
2019-06-20T00:10:16.692Z,17.69
2019-06-20T00:12:59.228Z,17.66
2019-06-20T00:15:13.829Z,17.62
2019-06-20T00:17:41.781Z,17.62
2019-06-20T00:20:09.440Z,17.58
2019-06-20T00:22:37.150Z,17.58
2019-06-20T00:25:05.287Z,17.56
2019-06-20T00:27:33.381Z,17.56
2019-06-20T00:30:00.965Z,17.56
2019-06-20T00:32:28.679Z,17.55
2019-06-20T00:34:56.342Z,17.55
2019-06-20T00:37:24.617Z,17.53
2019-06-20T00:39:52.226Z,17.53
2019-06-20T00:42:19.864Z,17.54
2019-06-20T00:44:48.013Z,17.54
2019-06-20T00:47:15.675Z,17.54
2019-06-20T00:49:43.336Z,17.55
2019-06-20T00:52:11.614Z,17.55
2019-06-20T00:54:39.686Z,17.55
2019-06-20T00:57:07.334Z,17.57
2019-06-20T00:59:34.885Z,17.57
2019-06-20T01:02:02.690Z,17.57
2019-06-20T01:04:30.522Z,17.55
2019-06-20T01:06:58.322Z,17.55
2019-06-20T01:09:25.871Z,17.57
2019-06-20T01:11:54.023Z,17.57
2019-06-20T01:14:21.702Z,17.59
2019-06-20T01:16:49.468Z,17.65
2019-06-20T01:19:17.001Z,17.68
2019-06-20T01:21:44.853Z,17.68
2019-06-20T01:24:12.439Z,17.70
2019-06-20T01:26:40.142Z,17.71
2019-06-20T01:29:07.881Z,17.69
2019-06-20T01:31:35.824Z,17.69
2019-06-20T01:34:03.514Z,17.68
2019-06-20T01:36:31.269Z,17.70
2019-06-20T01:38:59.034Z,17.72
2019-06-20T01:41:26.638Z,17.75
2019-06-20T01:43:54.359Z,17.79
2019-06-20T01:46:21.875Z,17.84
2019-06-20T01:48:49.575Z,17.88
2019-06-20T01:51:17.490Z,17.93
2019-06-20T01:53:45.053Z,17.98
2019-06-20T01:56:12.964Z,18.00
2019-06-20T01:58:40.621Z,18.02
2019-06-20T02:01:08.394Z,18.03
2019-06-20T02:03:35.969Z,18.05
2019-06-20T02:06:04.433Z,18.08
2019-06-20T02:08:32.507Z,18.10
2019-06-20T02:11:00.172Z,18.11
2019-06-20T02:13:28.362Z,18.11
2019-06-20T02:15:56.421Z,18.11
2019-06-20T02:18:24.070Z,18.11
2019-06-20T02:20:51.875Z,18.09
2019-06-20T02:23:19.499Z,18.09
2019-06-20T02:25:59.771Z,18.08
2019-06-20T02:28:27.521Z,18.03
2019-06-20T02:30:55.170Z,17.99
2019-06-20T02:33:22.865Z,17.97
2019-06-20T02:35:50.920Z,17.97
2019-06-20T02:38:18.618Z,17.94
2019-06-20T02:40:46.440Z,17.90
2019-06-20T02:43:14.417Z,17.90
2019-06-20T02:45:42.078Z,17.91
2019-06-20T02:48:09.751Z,17.89
2019-06-20T02:50:37.515Z,17.89
2019-06-20T02:53:05.475Z,17.89
2019-06-20T02:55:33.435Z,17.92
2019-06-20T02:58:01.108Z,17.92
2019-06-20T03:00:28.863Z,17.94
2019-06-20T03:02:57.249Z,17.96
2019-06-20T03:05:25.107Z,18.00
2019-06-20T03:07:52.773Z,18.00
2019-06-20T03:10:20.351Z,18.00
2019-06-20T03:12:47.989Z,18.00
2019-06-20T03:15:15.664Z,18.00
2019-06-20T03:17:43.419Z,18.02
2019-06-20T03:20:11.460Z,18.06
2019-06-20T03:22:39.059Z,18.07
2019-06-20T03:25:06.633Z,18.05
2019-06-20T03:27:34.277Z,18.05
2019-06-20T03:30:02.255Z,18.05
2019-06-20T03:32:29.904Z,18.05
2019-06-20T03:34:57.458Z,18.01
2019-06-20T03:37:25.239Z,17.98
2019-06-20T03:39:53.181Z,17.98
2019-06-20T03:42:20.762Z,17.98
2019-06-20T03:45:01.713Z,18.01
2019-06-20T03:47:18.114Z,18.01
2019-06-20T03:49:45.894Z,18.02
2019-06-20T03:52:13.549Z,18.03
2019-06-20T03:54:41.631Z,18.01
2019-06-20T03:57:09.599Z,17.99
2019-06-20T03:59:37.368Z,17.95
2019-06-20T04:02:05.038Z,17.95
2019-06-20T04:04:32.734Z,17.95
2019-06-20T04:07:00.645Z,17.95
2019-06-20T04:09:28.349Z,18.00
2019-06-20T04:11:55.980Z,18.00
2019-06-20T04:14:23.596Z,18.00
2019-06-20T04:16:51.497Z,18.00
2019-06-20T04:19:19.133Z,17.94
2019-06-20T04:21:46.737Z,17.94
2019-06-20T04:24:14.423Z,17.86
2019-06-20T04:26:42.555Z,17.87
2019-06-20T04:29:10.334Z,17.87
2019-06-20T04:31:38.099Z,17.93
2019-06-20T04:34:05.754Z,17.97
2019-06-20T04:36:33.676Z,17.97
2019-06-20T04:39:01.447Z,18.01
2019-06-20T04:41:29.259Z,18.03
2019-06-20T04:43:57.235Z,18.03
2019-06-20T04:46:30.505Z,18.03
2019-06-20T04:48:58.079Z,18.06
2019-06-20T04:51:25.634Z,18.14
2019-06-20T04:53:53.511Z,18.27
2019-06-20T04:56:21.276Z,18.51
2019-06-20T04:58:48.985Z,18.62
2019-06-20T05:01:16.589Z,18.62
2019-06-20T05:03:44.979Z,18.73
2019-06-20T05:06:12.731Z,18.87
2019-06-20T05:08:40.504Z,18.93
2019-06-20T05:11:08.166Z,18.96
2019-06-20T05:13:35.813Z,18.96
2019-06-20T05:16:03.478Z,18.96
2019-06-20T05:18:31.569Z,18.94
2019-06-20T05:20:59.107Z,18.94
2019-06-20T05:23:26.867Z,18.91
2019-06-20T05:25:54.632Z,18.84
2019-06-20T05:28:22.635Z,18.84
2019-06-20T05:30:50.290Z,18.80
2019-06-20T05:33:17.851Z,18.78
2019-06-20T05:35:45.967Z,18.75
2019-06-20T05:38:13.619Z,18.73
2019-06-20T05:40:41.249Z,18.73
2019-06-20T05:43:08.917Z,18.73
2019-06-20T05:45:36.928Z,18.73
2019-06-20T05:48:04.762Z,18.73
2019-06-20T05:50:32.487Z,18.72
2019-06-20T05:53:00.143Z,18.72
2019-06-20T05:55:28.160Z,18.75
2019-06-20T05:57:55.773Z,18.78
2019-06-20T06:00:23.438Z,18.83
2019-06-20T06:02:51.110Z,18.90
2019-06-20T06:07:58.475Z,19.03
2019-06-20T06:10:26.035Z,19.07
2019-06-20T06:12:53.835Z,19.10
2019-06-20T06:15:21.808Z,19.11
2019-06-20T06:17:49.559Z,19.09
2019-06-20T06:20:17.112Z,19.05
2019-06-20T06:22:46.235Z,18.90
2019-06-20T06:25:13.803Z,18.74
2019-06-20T06:27:41.546Z,18.47
2019-06-20T06:30:09.312Z,18.39
2019-06-20T06:32:40.429Z,18.39
2019-06-20T06:35:06.789Z,18.20
2019-06-20T06:37:34.383Z,18.20
2019-06-20T06:40:02.510Z,18.13
2019-06-20T06:42:30.293Z,18.06
2019-06-20T06:44:58.038Z,17.97
2019-06-20T06:47:25.814Z,17.91
2019-06-20T06:49:53.648Z,17.84
2019-06-20T06:52:21.344Z,17.80
2019-06-20T06:54:48.891Z,17.78
2019-06-20T06:57:16.808Z,17.78
2019-06-20T06:59:45.044Z,17.83
2019-06-20T07:02:12.665Z,18.03
2019-06-20T07:04:40.370Z,18.03
2019-06-20T07:07:07.928Z,18.13
2019-06-20T07:09:35.577Z,18.28
2019-06-20T07:12:03.517Z,18.44
2019-06-20T07:14:31.256Z,18.64
2019-06-20T07:17:00.553Z,18.82
2019-06-20T07:19:28.282Z,18.93
2019-06-20T07:21:56.371Z,19.14
2019-06-20T07:24:23.979Z,19.33
2019-06-20T07:26:51.571Z,19.48
2019-06-20T07:29:19.205Z,19.57
2019-06-20T07:31:47.210Z,19.63
2019-06-20T07:34:17.458Z,19.69
2019-06-20T07:36:44.995Z,19.69
2019-06-20T07:39:13.033Z,19.72
2019-06-20T07:41:40.927Z,19.81
2019-06-20T07:44:08.496Z,19.81
2019-06-20T07:46:36.054Z,19.87
2019-06-20T07:49:03.669Z,19.96
2019-06-20T07:51:31.779Z,20.09
2019-06-20T07:53:59.645Z,20.23
2019-06-20T07:56:27.203Z,20.37
2019-06-20T07:58:54.802Z,20.43
2019-06-20T08:01:22.808Z,20.41
2019-06-20T08:03:50.498Z,20.39
2019-06-20T08:06:18.248Z,20.39
2019-06-20T08:08:46.081Z,20.47
2019-06-20T08:11:14.089Z,20.52
2019-06-20T08:13:41.663Z,20.59
2019-06-20T08:16:09.629Z,20.75
2019-06-20T08:18:37.541Z,20.94
2019-06-20T08:21:05.113Z,21.13
2019-06-20T08:23:33.287Z,21.26
2019-06-20T08:26:00.937Z,21.40
2019-06-20T08:28:28.544Z,21.42
2019-06-20T08:30:57.737Z,21.45
2019-06-20T08:33:25.673Z,21.56
2019-06-20T08:35:53.272Z,21.64
2019-06-20T08:38:21.361Z,21.67
2019-06-20T08:40:48.913Z,21.73
2019-06-20T08:43:16.560Z,21.73
2019-06-20T08:45:44.746Z,21.70
2019-06-20T08:48:12.403Z,21.74
2019-06-20T08:50:39.954Z,21.85
2019-06-20T08:53:07.872Z,21.96
2019-06-20T08:55:35.461Z,22.09
2019-06-20T08:58:03.425Z,22.31
2019-06-20T09:00:31.338Z,22.31
2019-06-20T09:03:00.193Z,22.28
2019-06-20T09:05:30.437Z,22.15
2019-06-20T09:07:58.613Z,22.15
2019-06-20T09:10:26.495Z,22.25
2019-06-20T09:12:55.110Z,22.34
2019-06-20T09:15:22.768Z,22.37
2019-06-20T09:17:50.331Z,22.57
2019-06-20T09:20:18.195Z,22.57
2019-06-20T09:22:45.748Z,22.74
2019-06-20T09:25:13.746Z,22.87
2019-06-20T09:27:41.584Z,22.99
2019-06-20T09:30:09.319Z,23.17
2019-06-20T09:32:37.202Z,23.33
2019-06-20T09:35:05.169Z,23.54
2019-06-20T09:37:32.714Z,23.83
2019-06-20T09:40:00.676Z,23.90
2019-06-20T09:42:28.506Z,23.78
2019-06-20T09:44:56.413Z,23.64
2019-06-20T09:47:24.026Z,23.51
2019-06-20T09:49:55.203Z,23.51
2019-06-20T09:52:21.777Z,23.83
2019-06-20T09:54:50.150Z,23.83
2019-06-20T09:57:18.250Z,23.74
2019-06-20T09:59:59.113Z,23.36
2019-06-20T10:02:15.016Z,23.36
2019-06-20T10:04:43.046Z,23.25
2019-06-20T10:07:10.592Z,23.56
2019-06-20T10:09:38.261Z,23.67
2019-06-20T10:12:07.361Z,23.64
2019-06-20T10:14:35.208Z,23.44
2019-06-20T10:17:02.879Z,23.44
2019-06-20T10:19:30.707Z,23.44
2019-06-20T10:21:58.447Z,23.44
2019-06-20T10:24:26.006Z,23.36
2019-06-20T10:26:53.887Z,23.25
2019-06-20T10:29:21.444Z,23.15
2019-06-20T10:31:49.079Z,23.15
2019-06-20T10:34:16.920Z,23.17
2019-06-20T10:36:45.404Z,23.13
2019-06-20T10:39:13.731Z,22.99
2019-06-20T10:41:42.002Z,22.79
2019-06-20T10:44:09.973Z,22.57
2019-06-20T10:46:37.514Z,22.44
2019-06-20T10:49:05.522Z,22.35
2019-06-20T10:51:51.970Z,22.35
2019-06-20T10:54:20.097Z,22.45
2019-06-20T10:56:48.858Z,22.67
2019-06-20T10:59:16.486Z,22.92
2019-06-20T11:01:44.445Z,23.14
2019-06-20T11:04:12.004Z,23.30
2019-06-20T11:06:41.321Z,23.50
2019-06-20T11:09:08.804Z,23.71
2019-06-20T11:11:36.341Z,24.19
2019-06-20T11:14:04.281Z,24.28
2019-06-20T11:16:31.902Z,24.07
2019-06-20T11:18:59.445Z,24.07
2019-06-20T11:21:27.352Z,24.62
2019-06-20T11:23:54.965Z,25.04
2019-06-20T11:26:22.609Z,25.03
2019-06-20T11:28:50.439Z,24.86
2019-06-20T11:31:18.059Z,24.89
2019-06-20T11:33:45.634Z,24.89
2019-06-20T11:36:13.454Z,25.30
2019-06-20T11:38:42.467Z,26.20
2019-06-20T11:41:10.102Z,27.09
2019-06-20T11:43:38.428Z,26.77
2019-06-20T11:46:06.006Z,26.77
2019-06-20T11:48:34.239Z,26.74
2019-06-20T11:51:03.023Z,26.97
2019-06-20T11:53:32.080Z,26.97
2019-06-20T11:56:00.292Z,27.04
2019-06-20T11:58:28.288Z,26.73
2019-06-20T12:01:03.640Z,26.40
2019-06-20T12:03:25.203Z,26.02
2019-06-20T12:05:53.003Z,25.58
2019-06-20T12:08:20.610Z,25.14
2019-06-20T12:10:49.387Z,24.73
2019-06-20T12:13:17.330Z,24.50
2019-06-20T12:15:46.573Z,24.63
2019-06-20T12:18:14.374Z,25.02
2019-06-20T12:20:42.900Z,25.86
2019-06-20T12:23:10.400Z,26.83
2019-06-20T12:25:39.290Z,26.90
2019-06-20T12:28:07.574Z,26.15
2019-06-20T12:30:35.161Z,25.55
2019-06-20T12:33:02.711Z,25.15
2019-06-20T12:35:30.627Z,25.15
2019-06-20T12:37:58.237Z,24.81
2019-06-20T12:40:25.789Z,24.52
2019-06-20T12:42:53.671Z,24.27
2019-06-20T12:45:21.292Z,24.13
2019-06-20T12:47:49.977Z,24.03
2019-06-20T12:50:18.010Z,23.90
2019-06-20T12:52:47.527Z,23.75
2019-06-20T12:55:15.352Z,23.71
2019-06-20T12:57:44.181Z,23.69
2019-06-20T13:00:11.931Z,23.69
2019-06-20T13:02:40.465Z,23.71
2019-06-20T13:05:08.997Z,23.79
2019-06-20T13:07:38.606Z,23.79
2019-06-20T13:10:05.788Z,23.84
2019-06-20T13:12:33.653Z,24.29
2019-06-20T13:15:01.231Z,24.29
2019-06-20T13:17:28.852Z,24.54
2019-06-20T13:19:56.689Z,24.94
2019-06-20T13:22:24.464Z,24.94
2019-06-20T13:24:52.040Z,24.71
2019-06-20T13:27:19.972Z,24.55
2019-06-20T13:29:47.502Z,24.55
2019-06-20T13:32:15.036Z,24.42
2019-06-20T13:34:42.954Z,24.42
2019-06-20T13:37:10.485Z,24.56
2019-06-20T13:39:38.761Z,24.56
2019-06-20T13:42:07.807Z,24.71
2019-06-20T13:44:35.393Z,24.97
2019-06-20T13:47:02.887Z,25.18
2019-06-20T13:49:30.614Z,27.06
2019-06-20T13:51:58.578Z,27.06
2019-06-20T13:54:26.121Z,29.45
2019-06-20T13:56:54.069Z,29.45
2019-06-20T13:59:21.715Z,29.29
2019-06-20T14:01:49.248Z,29.18
2019-06-20T14:04:17.172Z,28.81
2019-06-20T14:06:45.462Z,28.07
2019-06-20T14:09:13.029Z,27.44
2019-06-20T14:11:41.820Z,26.44
2019-06-20T14:14:10.503Z,25.92
2019-06-20T14:16:38.030Z,25.92
2019-06-20T14:19:05.929Z,25.44
2019-06-20T14:21:33.485Z,24.93
2019-06-20T14:24:01.073Z,24.04
2019-06-20T14:26:28.900Z,24.04
2019-06-20T14:28:56.496Z,23.31
2019-06-20T14:31:24.063Z,22.98
2019-06-20T14:33:51.927Z,22.98
2019-06-20T14:36:19.490Z,22.43
2019-06-20T14:38:47.364Z,22.43
2019-06-20T14:41:14.970Z,22.15
2019-06-20T14:43:42.990Z,21.96
2019-06-20T14:46:12.023Z,21.85
2019-06-20T14:48:39.640Z,21.76
2019-06-20T14:51:07.254Z,21.41
2019-06-20T14:53:35.575Z,21.41
2019-06-20T14:56:03.168Z,21.16
2019-06-20T14:58:30.810Z,20.88
2019-06-20T15:00:58.921Z,20.57
2019-06-20T15:03:26.652Z,20.35
2019-06-20T15:05:54.637Z,20.17
2019-06-20T15:08:23.123Z,20.00
2019-06-20T15:10:51.790Z,19.82
2019-06-20T15:13:19.471Z,19.82
2019-06-20T15:15:47.844Z,19.76
2019-06-20T15:18:16.749Z,19.70
2019-06-20T15:20:45.170Z,19.66
2019-06-20T15:23:13.841Z,19.65
2019-06-20T15:25:41.379Z,19.69
2019-06-20T15:28:08.938Z,19.69
2019-06-20T15:30:36.804Z,19.75
2019-06-20T15:33:09.927Z,19.82
2019-06-20T15:35:33.987Z,19.94
2019-06-20T15:38:02.085Z,19.94
2019-06-20T15:40:29.735Z,20.25
2019-06-20T15:42:58.776Z,20.55
2019-06-20T15:45:27.010Z,20.55
2019-06-20T15:47:54.575Z,20.57
2019-06-20T15:50:22.177Z,20.59
2019-06-20T15:52:50.215Z,20.58
2019-06-20T15:55:18.149Z,20.59
2019-06-20T15:57:45.685Z,20.60
2019-06-20T16:00:13.772Z,20.60
2019-06-20T16:02:41.379Z,20.61
2019-06-20T16:05:08.960Z,20.65
2019-06-20T16:07:36.944Z,20.62
2019-06-20T16:10:04.496Z,20.62
2019-06-20T16:12:32.104Z,20.58
2019-06-20T16:15:00.145Z,20.59
2019-06-20T16:17:27.765Z,20.64
2019-06-20T16:19:55.295Z,20.64
2019-06-20T16:22:23.300Z,20.69
2019-06-20T16:24:51.299Z,20.69
2019-06-20T16:27:18.835Z,20.63
2019-06-20T16:29:46.895Z,20.60
2019-06-20T16:32:14.458Z,20.62
2019-06-20T16:34:42.082Z,20.68
2019-06-20T16:37:10.733Z,20.77
2019-06-20T16:39:38.679Z,20.74
2019-06-20T16:42:06.280Z,20.74
2019-06-20T16:44:34.323Z,20.70
2019-06-20T16:47:01.869Z,20.72
2019-06-20T16:49:29.509Z,20.75
2019-06-20T16:51:57.563Z,20.77
2019-06-20T16:54:25.183Z,20.75
2019-06-20T16:56:52.726Z,20.75
2019-06-20T16:59:20.764Z,20.69
2019-06-20T17:01:48.365Z,20.67
2019-06-20T17:04:15.963Z,20.67
2019-06-20T17:06:43.996Z,20.68
2019-06-20T17:09:11.739Z,20.66
2019-06-20T17:11:39.379Z,20.64
2019-06-20T17:14:07.372Z,20.64
2019-06-20T17:16:35.132Z,20.65
2019-06-20T17:19:02.883Z,20.65
2019-06-20T17:21:30.694Z,20.72
2019-06-20T17:23:58.257Z,20.80
2019-06-20T17:26:26.344Z,20.79
2019-06-20T17:28:54.232Z,20.65
2019-06-20T17:31:21.877Z,20.65
2019-06-20T17:33:57.502Z,20.57
2019-06-20T17:36:19.097Z,20.53
2019-06-20T17:38:46.702Z,20.53
2019-06-20T17:41:14.277Z,20.55
2019-06-20T17:43:42.436Z,20.56
2019-06-20T17:46:10.101Z,20.49
2019-06-20T17:48:37.725Z,20.47
2019-06-20T17:51:05.886Z,20.47
2019-06-20T17:53:33.514Z,20.45
2019-06-20T17:56:01.145Z,20.37
2019-06-20T17:58:29.272Z,20.27
2019-06-20T18:00:56.827Z,20.19
2019-06-20T18:03:24.503Z,20.12
2019-06-20T18:05:52.566Z,20.06
2019-06-20T18:08:20.244Z,20.02
2019-06-20T18:10:47.902Z,19.99
2019-06-20T18:13:15.601Z,19.99
2019-06-20T18:15:43.315Z,19.98
2019-06-20T18:18:11.323Z,19.93
2019-06-20T18:20:38.956Z,19.85
2019-06-20T18:23:06.657Z,19.65
2019-06-20T18:25:34.671Z,19.65
2019-06-20T18:28:02.398Z,19.55
2019-06-20T18:30:30.002Z,19.39
2019-06-20T18:32:58.169Z,19.39
2019-06-20T18:35:26.348Z,19.32
2019-06-20T18:37:54.024Z,19.24
2019-06-20T18:40:22.396Z,19.19
2019-06-20T18:42:50.008Z,19.15
2019-06-20T18:45:17.822Z,19.11
2019-06-20T18:47:45.911Z,19.06
2019-06-20T18:50:13.570Z,19.03
2019-06-20T18:52:51.501Z,19.02
2019-06-20T18:55:10.984Z,19.01
2019-06-20T18:57:38.991Z,19.01
2019-06-20T19:00:06.677Z,19.01
2019-06-20T19:02:34.651Z,19.02
2019-06-20T19:05:02.187Z,19.02
2019-06-20T19:07:29.794Z,19.05
2019-06-20T19:09:57.640Z,19.05
2019-06-20T19:12:25.184Z,19.05
2019-06-20T19:14:52.794Z,19.05
2019-06-20T19:17:21.007Z,19.05
2019-06-20T19:19:48.668Z,19.05
2019-06-20T19:22:17.616Z,19.01
2019-06-20T19:24:45.488Z,18.97
2019-06-20T19:27:13.064Z,18.95
2019-06-20T19:29:40.775Z,18.93
2019-06-20T19:32:08.659Z,18.93
2019-06-20T19:34:36.208Z,18.91
2019-06-20T19:37:03.897Z,18.90
2019-06-20T19:39:31.913Z,18.85
2019-06-20T19:41:59.613Z,18.82
2019-06-20T19:44:27.226Z,18.72
2019-06-20T19:46:55.201Z,18.68
2019-06-20T19:49:22.857Z,18.65
2019-06-20T19:51:50.641Z,18.62
2019-06-20T19:54:18.575Z,18.62
2019-06-20T19:56:46.168Z,18.59
2019-06-20T19:59:13.619Z,18.54
2019-06-20T20:01:41.518Z,18.46
2019-06-20T20:04:09.055Z,18.40
2019-06-20T20:06:36.623Z,18.36
2019-06-20T20:09:04.738Z,18.34
2019-06-20T20:11:32.354Z,18.33
2019-06-20T20:13:59.901Z,18.29
2019-06-20T20:16:27.763Z,18.29
2019-06-20T20:18:55.277Z,18.27
2019-06-20T20:21:22.897Z,18.23
2019-06-20T20:23:50.437Z,18.23
2019-06-20T20:26:18.232Z,18.22
2019-06-20T20:28:45.874Z,18.21
2019-06-20T20:31:13.421Z,18.21
2019-06-20T20:33:41.060Z,18.19
2019-06-20T20:36:21.190Z,18.18
2019-06-20T20:38:38.214Z,18.18
2019-06-20T20:41:05.824Z,18.16
2019-06-20T20:43:33.461Z,18.15
2019-06-20T20:46:01.228Z,18.13
2019-06-20T20:48:29.017Z,18.13
2019-06-20T20:50:56.959Z,18.09
2019-06-20T20:53:24.848Z,18.09
2019-06-20T20:55:52.486Z,18.10
2019-06-20T20:58:20.575Z,18.11
2019-06-20T21:00:48.154Z,18.09
2019-06-20T21:03:16.416Z,18.09
2019-06-20T21:05:51.343Z,18.08
2019-06-20T21:08:13.868Z,18.08
2019-06-20T21:10:41.630Z,18.04
2019-06-20T21:13:09.516Z,18.04
2019-06-20T21:15:37.686Z,18.02
2019-06-20T21:18:05.352Z,18.00
2019-06-20T21:20:33.456Z,17.97
2019-06-20T21:23:01.273Z,17.96
2019-06-20T21:25:32.066Z,17.93
2019-06-20T21:27:58.347Z,17.93
2019-06-20T21:30:26.349Z,17.89
2019-06-20T21:32:54.475Z,17.89
2019-06-20T21:35:22.349Z,17.88
2019-06-20T21:37:49.874Z,17.89
2019-06-20T21:40:17.824Z,17.88
2019-06-20T21:42:45.401Z,17.88
2019-06-20T21:45:13.001Z,17.87
2019-06-20T21:47:40.762Z,17.85
2019-06-20T21:50:08.739Z,17.84
2019-06-20T21:52:36.345Z,17.84
2019-06-20T21:55:04.050Z,17.85
2019-06-20T21:57:32.084Z,17.85
2019-06-20T21:59:59.605Z,17.84
2019-06-20T22:02:27.287Z,17.83
2019-06-20T22:04:54.999Z,17.81
2019-06-20T22:07:22.921Z,17.80
2019-06-20T22:09:50.642Z,17.76
2019-06-20T22:12:18.241Z,17.70
2019-06-20T22:14:45.858Z,17.64
2019-06-20T22:17:13.395Z,17.59
2019-06-20T22:19:41.089Z,17.56
2019-06-20T22:22:08.948Z,17.54
2019-06-20T22:24:36.941Z,17.53
2019-06-20T22:27:04.546Z,17.51
2019-06-20T22:29:32.755Z,17.50
2019-06-20T22:32:00.523Z,17.51
2019-06-20T22:34:28.209Z,17.50
2019-06-20T22:36:55.842Z,17.48
2019-06-20T22:39:23.941Z,17.46
2019-06-20T22:41:51.700Z,17.44
2019-06-20T22:44:19.415Z,17.41
2019-06-20T22:46:47.622Z,17.31
2019-06-20T22:49:15.280Z,17.31
2019-06-20T22:51:43.041Z,17.19
2019-06-20T22:54:10.714Z,17.19
2019-06-20T22:56:38.927Z,17.11
2019-06-20T22:59:07.126Z,17.06
2019-06-20T23:01:34.824Z,16.99
2019-06-20T23:04:02.480Z,16.90
2019-06-20T23:06:30.466Z,16.85
2019-06-20T23:08:58.219Z,16.81
2019-06-20T23:11:25.776Z,16.78
2019-06-20T23:13:53.431Z,16.76
2019-06-20T23:16:21.098Z,16.76
2019-06-20T23:18:49.190Z,16.76
2019-06-20T23:21:16.835Z,16.78
2019-06-20T23:23:44.819Z,16.78
2019-06-20T23:26:12.840Z,16.76
2019-06-20T23:28:40.646Z,16.76
2019-06-20T23:31:08.593Z,16.75
2019-06-20T23:33:36.573Z,16.72
2019-06-20T23:36:04.330Z,16.68
2019-06-20T23:38:31.891Z,16.64
2019-06-20T23:40:59.655Z,16.60
2019-06-20T23:43:27.725Z,16.58
2019-06-20T23:45:55.455Z,16.54
2019-06-20T23:48:23.053Z,16.51
2019-06-20T23:50:50.716Z,16.50
2019-06-20T23:53:22.410Z,16.48
2019-06-20T23:55:50.044Z,16.49
2019-06-20T23:58:18.110Z,16.49
